Time;durP1;ratioP1;P1;durP2;ratioP2;P2;SDS_P1;SDS_P2;PMS_P1;PMS_P2;Temp;Humidity;BMP_temperature;BMP_pressure;BME280_temperature;BME280_humidity;BME280_pressure;Samples;Min_cycle;Max_cycle;Signal;HPM_P1;HPM_P2
2023/09/17 00:01:20;;;;;;;12.38;9.32;;;;;;;19.66;100.00;100996.13;5032047;28;20053;-71
2023/09/17 00:03:45;;;;;;;11.77;9.45;;;;;;;19.68;100.00;100994.41;5031494;28;20033;-69
2023/09/17 00:06:11;;;;;;;13.18;8.45;;;;;;;19.65;100.00;100994.38;5031838;28;20029;-69
2023/09/17 00:08:38;;;;;;;19.77;9.77;;;;;;;19.21;100.00;100917.22;5020597;28;20018;-69
2023/09/17 00:11:03;;;;;;;12.68;9.32;;;;;;;19.63;100.00;100986.50;5012424;28;20042;-70
2023/09/17 00:13:29;;;;;;;12.43;8.27;;;;;;;19.46;100.00;100982.88;5011890;28;20032;-70
2023/09/17 00:15:55;;;;;;;12.90;8.45;;;;;;;19.43;100.00;100980.22;5011789;28;20029;-70
2023/09/17 00:18:20;;;;;;;15.23;9.20;;;;;;;19.40;100.00;100981.06;5012164;28;20412;-69
2023/09/17 00:20:46;;;;;;;16.52;8.93;;;;;;;19.32;100.00;100962.69;5012304;28;20025;-69
2023/09/17 00:23:11;;;;;;;12.82;8.70;;;;;;;19.06;100.00;100917.94;5011948;28;20021;-68
2023/09/17 00:25:37;;;;;;;10.82;8.52;;;;;;;19.45;100.00;100958.44;5011889;28;20504;-69
2023/09/17 00:28:03;;;;;;;12.57;9.27;;;;;;;19.34;100.00;100942.63;5011968;28;20388;-69
2023/09/17 00:30:28;;;;;;;10.98;9.02;;;;;;;19.48;100.00;100958.44;5011928;28;20026;-70
2023/09/17 00:32:54;;;;;;;10.82;8.27;;;;;;;19.47;100.00;100950.59;5011419;28;20036;-68
2023/09/17 00:35:19;;;;;;;13.85;8.20;;;;;;;19.34;100.00;100955.72;5011570;28;20418;-68
2023/09/17 00:37:45;;;;;;;12.73;8.60;;;;;;;19.28;100.00;100955.66;5011339;28;20485;-69
2023/09/17 00:40:11;;;;;;;13.00;8.93;;;;;;;19.23;100.00;100960.84;5011341;28;20037;-69
2023/09/17 00:42:37;;;;;;;13.88;8.18;;;;;;;18.96;100.00;100969.31;5026450;28;20077;-70
2023/09/17 00:45:04;;;;;;;11.25;8.23;;;;;;;18.98;100.00;100967.59;5011182;28;20065;-69
2023/09/17 00:47:31;;;;;;;12.73;9.25;;;;;;;19.03;100.00;100962.41;5011295;28;20029;-70
2023/09/17 00:49:56;;;;;;;12.75;8.85;;;;;;;19.04;100.00;100956.28;5011458;28;20034;-69
2023/09/17 00:52:22;;;;;;;12.80;8.27;;;;;;;19.00;100.00;100962.38;5011421;28;20076;-69
2023/09/17 00:54:51;;;;;;;12.00;8.82;;;;;;;19.00;100.00;100962.38;5011070;28;20034;-69
2023/09/17 00:57:17;;;;;;;12.47;8.73;;;;;;;18.90;100.00;100951.81;5010917;28;20033;-69
2023/09/17 00:59:49;;;;;;;15.02;8.85;;;;;;;18.92;100.00;100957.06;5010699;28;20022;-69
2023/09/17 01:02:18;;;;;;;16.35;9.20;;;;;;;18.97;100.00;100954.50;5011356;28;20053;-73
2023/09/17 01:04:49;;;;;;;12.77;9.23;;;;;;;18.99;100.00;100968.47;5011098;28;20037;-69
2023/09/17 01:07:16;;;;;;;12.95;8.98;;;;;;;19.02;100.00;100958.91;5008770;28;20053;-70
2023/09/17 01:09:42;;;;;;;12.25;8.88;;;;;;;18.76;100.00;100922.84;5011431;28;20044;-69
2023/09/17 01:12:07;;;;;;;14.43;8.98;;;;;;;18.83;100.00;100952.59;5011020;28;20564;-69
2023/09/17 01:14:34;;;;;;;16.58;9.60;;;;;;;18.76;100.00;100946.38;5009485;28;20045;-69
2023/09/17 01:17:01;;;;;;;15.18;9.52;;;;;;;18.80;100.00;100949.91;5013075;28;20038;-69
2023/09/17 01:19:29;;;;;;;11.52;9.02;;;;;;;18.89;100.00;100947.41;5030555;28;20033;-70
2023/09/17 01:22:12;;;;;;;13.25;8.65;;;;;;;19.03;100.00;100946.72;5030268;28;20053;-68
2023/09/17 01:24:50;;;;;;;16.08;9.30;;;;;;;19.17;100.00;100955.56;5030199;28;20064;-70
2023/09/17 01:27:18;;;;;;;13.63;9.43;;;;;;;19.11;100.00;100942.41;5045720;28;20078;-69
2023/09/17 01:29:46;;;;;;;12.43;8.90;;;;;;;18.83;100.00;100926.41;5030633;28;20079;-68
2023/09/17 01:32:12;;;;;;;18.27;9.95;;;;;;;18.92;100.00;100947.47;5030292;28;20026;-69
2023/09/17 01:34:41;;;;;;;14.68;10.50;;;;;;;18.92;100.00;100942.22;5030195;28;20453;-72
2023/09/17 01:37:31;;;;;;;19.63;10.35;;;;;;;18.84;100.00;100941.25;5030053;28;20053;-70
2023/09/17 01:40:00;;;;;;;16.92;9.68;;;;;;;18.76;100.00;100927.22;5030065;28;20037;-70
2023/09/17 01:42:27;;;;;;;13.75;9.50;;;;;;;18.33;100.00;100872.72;5030221;28;20037;-70
2023/09/17 01:44:55;;;;;;;13.48;9.60;;;;;;;18.77;100.00;100947.28;5030378;28;20116;-69
2023/09/17 01:47:22;;;;;;;15.43;9.48;;;;;;;18.58;100.00;100944.47;5030031;28;20025;-73
2023/09/17 01:49:48;;;;;;;15.50;10.32;;;;;;;18.31;100.00;100952.84;5030168;28;20026;-70
2023/09/17 01:52:14;;;;;;;15.55;10.27;;;;;;;18.18;100.00;100925.69;5030047;28;20068;-69
2023/09/17 01:54:40;;;;;;;13.13;10.65;;;;;;;18.06;100.00;100917.69;5030123;28;20032;-69
2023/09/17 01:57:06;;;;;;;16.30;10.40;;;;;;;18.31;100.00;100958.06;5029886;28;20029;-69
2023/09/17 01:59:31;;;;;;;16.00;10.52;;;;;;;18.02;100.00;100876.66;5029820;28;20025;-69
2023/09/17 02:01:57;;;;;;;15.98;10.35;;;;;;;18.34;100.00;100946.78;5029889;28;20041;-68
2023/09/17 02:04:22;;;;;;;13.70;9.65;;;;;;;18.03;100.00;100899.34;5029488;28;20405;-70
2023/09/17 02:06:53;;;;;;;12.13;9.88;;;;;;;18.28;100.00;100934.53;5030158;28;20029;-70
2023/09/17 02:09:18;;;;;;;13.13;9.80;;;;;;;18.21;100.00;100909.16;5031168;28;20025;-70
2023/09/17 02:11:44;;;;;;;18.08;10.20;;;;;;;18.47;100.00;100934.72;5034486;28;20481;-69
2023/09/17 02:14:09;;;;;;;13.40;9.65;;;;;;;18.65;100.00;100940.16;5034112;28;20158;-69
2023/09/17 02:16:35;;;;;;;13.93;10.20;;;;;;;18.76;100.00;100950.75;5034096;28;20396;-70
2023/09/17 02:19:03;;;;;;;13.95;9.38;;;;;;;18.87;100.00;100938.66;5033953;28;20027;-69
2023/09/17 02:21:28;;;;;;;13.23;10.45;;;;;;;18.80;100.00;100939.44;5033863;28;20033;-70
2023/09/17 02:23:54;;;;;;;13.10;9.82;;;;;;;18.31;100.00;100876.19;5034107;28;20048;-69
2023/09/17 02:26:21;;;;;;;17.02;10.60;;;;;;;18.73;100.00;100930.69;5033643;28;20040;-69
2023/09/17 02:28:47;;;;;;;11.48;9.70;;;;;;;18.90;100.00;100943.03;5033953;28;20025;-69
2023/09/17 02:31:13;;;;;;;16.10;9.93;;;;;;;18.85;100.00;100939.50;5033848;28;20037;-70
2023/09/17 02:33:39;;;;;;;14.52;10.40;;;;;;;18.67;100.00;100911.44;5033271;28;20104;-72
2023/09/17 02:36:06;;;;;;;48.22;11.70;;;;;;;18.72;100.00;100922.81;5033727;28;20183;-69
2023/09/17 02:38:31;;;;;;;12.95;9.82;;;;;;;18.79;100.00;100934.22;5033433;28;20580;-69
2023/09/17 02:40:57;;;;;;;15.65;10.38;;;;;;;18.39;100.00;100872.78;5033427;28;20064;-69
2023/09/17 02:43:22;;;;;;;17.75;9.85;;;;;;;18.71;100.00;100928.91;5033426;28;20030;-70
2023/09/17 02:45:49;;;;;;;16.25;10.05;;;;;;;18.68;100.00;100934.97;5033309;28;20025;-69
2023/09/17 02:48:15;;;;;;;13.02;9.82;;;;;;;18.68;100.00;100936.69;5033187;28;20033;-70
2023/09/17 02:50:41;;;;;;;15.75;10.38;;;;;;;18.60;100.00;100915.72;5033372;28;20037;-69
2023/09/17 02:53:07;;;;;;;18.27;11.50;;;;;;;18.68;100.00;100929.75;5032003;28;20017;-69
2023/09/17 02:55:34;;;;;;;15.13;10.57;;;;;;;18.73;100.00;100929.81;5033408;28;20091;-70
2023/09/17 02:58:01;;;;;;;15.38;10.48;;;;;;;18.78;100.00;100930.75;5033249;28;20087;-69
2023/09/17 03:00:33;;;;;;;13.18;10.57;;;;;;;18.79;100.00;100929.88;5032779;28;20465;-70
2023/09/17 03:02:59;;;;;;;13.18;10.27;;;;;;;18.80;100.00;100925.50;5032739;28;20041;-69
2023/09/17 03:05:25;;;;;;;16.25;10.38;;;;;;;18.69;100.00;100912.31;5033067;28;20033;-70
2023/09/17 03:07:50;;;;;;;17.00;9.98;;;;;;;18.27;100.00;100830.84;5032836;28;20513;-70
2023/09/17 03:10:18;;;;;;;13.02;10.52;;;;;;;18.68;100.00;100893.13;5032849;28;20022;-70
2023/09/17 03:12:46;;;;;;;14.15;9.88;;;;;;;18.99;100.00;100926.59;5032699;28;20504;-69
2023/09/17 03:15:12;;;;;;;15.18;10.25;;;;;;;18.98;100.00;100935.31;5032503;28;20094;-69
2023/09/17 03:17:38;;;;;;;12.95;9.55;;;;;;;18.95;100.00;100930.06;5032996;28;20459;-74
2023/09/17 03:20:13;;;;;;;12.98;9.77;;;;;;;18.43;100.00;100858.03;5032456;28;20025;-69
2023/09/17 03:22:42;;;;;;;12.82;9.38;;;;;;;18.83;100.00;100934.28;5032226;28;20098;-69
2023/09/17 03:25:08;;;;;;;16.05;10.63;;;;;;;18.40;100.00;100864.06;5013916;28;20029;-69
2023/09/17 03:27:33;;;;;;;15.35;10.52;;;;;;;18.85;100.00;100942.13;5032441;28;20025;-70
2023/09/17 03:30:00;;;;;;;13.43;9.98;;;;;;;18.86;100.00;100938.66;5013532;28;20044;-70
2023/09/17 03:32:26;;;;;;;11.88;10.63;;;;;;;18.24;100.00;100857.81;5032637;28;20029;-69
2023/09/17 03:34:52;;;;;;;16.77;10.52;;;;;;;18.36;100.00;100862.28;5032588;28;20053;-72
2023/09/17 03:37:17;;;;;;;12.73;10.40;;;;;;;18.73;100.00;100919.34;5032764;28;20033;-70
2023/09/17 03:39:45;;;;;;;14.10;10.27;;;;;;;18.96;100.00;100937.03;5022684;28;20034;-70
2023/09/17 03:42:10;;;;;;;11.70;9.77;;;;;;;18.75;100.00;100908.03;5012369;28;20508;-71
2023/09/17 03:44:36;;;;;;;13.18;10.52;;;;;;;18.88;100.00;100931.72;5012471;28;20398;-69
2023/09/17 03:47:03;;;;;;;14.52;9.93;;;;;;;18.82;100.00;100934.25;5010273;28;20520;-70
2023/09/17 03:49:29;;;;;;;12.73;10.13;;;;;;;18.91;100.00;100932.63;5012784;28;20042;-70
2023/09/17 03:51:55;;;;;;;12.38;9.85;;;;;;;18.92;100.00;100926.53;5012550;28;20041;-70
2023/09/17 03:54:21;;;;;;;15.13;9.88;;;;;;;18.93;100.00;100935.28;5012270;28;20029;-70
2023/09/17 03:56:46;;;;;;;16.98;9.82;;;;;;;18.90;100.00;100928.28;5010721;28;20409;-68
2023/09/17 03:59:12;;;;;;;22.60;9.68;;;;;;;18.85;100.00;100922.06;5012182;28;20036;-68
2023/09/17 04:01:37;;;;;;;19.02;9.93;;;;;;;18.78;100.00;100912.44;5012299;28;20031;-70
2023/09/17 04:04:03;;;;;;;15.77;10.20;;;;;;;18.82;100.00;100913.34;5012261;28;20440;-70
2023/09/17 04:06:29;;;;;;;14.07;9.45;;;;;;;18.98;100.00;100936.19;5012213;28;20037;-73
2023/09/17 04:08:55;;;;;;;11.57;9.30;;;;;;;19.13;100.00;100938.09;5012384;28;20033;-70
2023/09/17 04:11:20;;;;;;;15.02;9.23;;;;;;;19.13;100.00;100930.22;5011795;28;20116;-70
2023/09/17 04:13:46;;;;;;;12.57;9.23;;;;;;;18.93;100.00;100922.19;5029885;28;20099;-72
2023/09/17 04:16:12;;;;;;;13.45;9.60;;;;;;;18.87;100.00;100922.97;5031396;28;20544;-70
2023/09/17 04:18:38;;;;;;;19.20;10.32;;;;;;;18.97;100.00;100939.66;5031859;28;20017;-70
2023/09/17 04:21:03;;;;;;;17.67;10.23;;;;;;;18.86;100.00;100922.97;5031815;28;20370;-70
2023/09/17 04:23:29;;;;;;;14.50;10.75;;;;;;;18.87;100.00;100949.13;5031628;28;20057;-69
2023/09/17 04:25:55;;;;;;;15.77;10.13;;;;;;;18.84;100.00;100937.75;5031207;28;20393;-70
2023/09/17 04:28:20;;;;;;;15.05;9.45;;;;;;;18.80;100.00;100926.38;5031551;28;20021;-69
2023/09/17 04:30:46;;;;;;;11.65;9.77;;;;;;;18.42;100.00;100878.03;5031591;28;20037;-69
2023/09/17 04:33:11;;;;;;;19.27;9.60;;;;;;;18.72;100.00;100928.06;5030854;28;20104;-71
2023/09/17 04:35:36;;;;;;;18.25;9.88;;;;;;;18.77;100.00;100934.22;5031255;28;20056;-69
2023/09/17 04:38:03;;;;;;;15.07;9.60;;;;;;;18.84;100.00;100933.41;5029885;28;20029;-70
2023/09/17 04:40:28;;;;;;;21.02;10.02;;;;;;;18.73;100.00;100935.03;5030790;28;20420;-69
2023/09/17 04:42:54;;;;;;;20.30;10.45;;;;;;;18.69;100.00;100936.75;5031004;28;20033;-70
2023/09/17 04:45:37;;;;;;;19.30;10.15;;;;;;;18.57;100.00;100928.75;5031317;28;20033;-74
2023/09/17 04:48:03;;;;;;;14.38;10.07;;;;;;;18.22;100.00;100861.28;5031369;28;20408;-70
2023/09/17 04:50:29;;;;;;;13.35;9.45;;;;;;;18.68;100.00;100937.59;5031179;28;20017;-69
2023/09/17 04:52:55;;;;;;;13.98;9.90;;;;;;;18.66;100.00;100960.22;5012265;28;20056;-68
2023/09/17 04:55:20;;;;;;;12.90;9.85;;;;;;;18.34;100.00;100938.94;5031049;28;20083;-69
2023/09/17 04:57:46;;;;;;;18.23;11.00;;;;;;;18.38;100.00;100959.91;5031141;28;20029;-69
2023/09/17 05:00:12;;;;;;;15.43;10.43;;;;;;;18.36;100.00;100965.97;5031128;28;20026;-69
2023/09/17 05:02:39;;;;;;;11.65;9.68;;;;;;;18.39;100.00;100960.78;5011979;28;20057;-73
2023/09/17 05:05:09;;;;;;;13.43;10.10;;;;;;;17.99;100.00;100953.28;5031119;28;20029;-73
2023/09/17 05:07:37;;;;;;;13.65;10.57;;;;;;;17.99;100.00;100968.09;5030651;28;20029;-71
2023/09/17 05:10:03;;;;;;;13.63;10.32;;;;;;;18.09;100.00;100975.19;5030890;28;20446;-68
2023/09/17 05:12:28;;;;;;;28.40;12.02;;;;;;;18.12;100.00;100956.97;5030960;28;20037;-70
2023/09/17 05:14:54;;;;;;;15.32;11.35;;;;;;;18.08;100.00;100932.53;5030673;28;20029;-69
2023/09/17 05:17:19;;;;;;;19.38;11.50;;;;;;;18.41;100.00;100972.13;5030719;28;20029;-69
2023/09/17 05:19:45;;;;;;;18.58;11.43;;;;;;;18.51;100.00;100971.38;5030306;28;20036;-70
2023/09/17 05:22:10;;;;;;;16.63;11.15;;;;;;;18.48;100.00;100973.97;5030209;28;20526;-69
2023/09/17 05:24:36;;;;;;;25.50;11.18;;;;;;;18.55;100.00;100969.69;5045976;28;20025;-69
2023/09/17 05:27:02;;;;;;;14.32;11.05;;;;;;;18.20;100.00;100925.69;5030483;28;20409;-70
2023/09/17 05:29:27;;;;;;;22.08;11.43;;;;;;;18.38;100.00;100985.16;5030630;28;20032;-72
2023/09/17 05:31:53;;;;;;;20.92;10.00;;;;;;;18.39;100.00;100982.59;5030468;28;20033;-70
2023/09/17 05:34:19;;;;;;;14.00;10.98;;;;;;;18.48;100.00;100983.53;5030234;28;20025;-69
2023/09/17 05:36:45;;;;;;;14.02;10.27;;;;;;;18.56;100.00;100974.06;5027979;28;20574;-69
2023/09/17 05:39:10;;;;;;;12.35;10.27;;;;;;;18.73;100.00;100983.00;5030453;28;20069;-71
2023/09/17 05:41:37;;;;;;;13.93;10.70;;;;;;;18.83;100.00;100983.97;5030357;28;20053;-69
2023/09/17 05:44:03;;;;;;;14.85;11.77;;;;;;;18.83;100.00;100975.22;5029683;28;20500;-69
2023/09/17 05:46:32;;;;;;;19.92;13.00;;;;;;;18.78;100.00;100990.91;5030375;28;20064;-70
2023/09/17 05:48:57;;;;;;;21.02;14.98;;;;;;;18.54;100.00;100934.84;5030123;28;20025;-70
2023/09/17 05:51:23;;;;;;;20.77;15.25;;;;;;;18.91;100.00;100991.94;5030037;28;20030;-72
2023/09/17 05:53:48;;;;;;;19.98;16.35;;;;;;;18.91;100.00;100979.72;5030092;28;20467;-70
2023/09/17 05:56:13;;;;;;;23.98;16.25;;;;;;;19.11;100.00;100992.13;5030300;28;20117;-70
2023/09/17 05:58:39;;;;;;;24.33;14.55;;;;;;;19.26;100.00;100993.16;5020151;28;20409;-69
2023/09/17 06:01:04;;;;;;;23.42;14.80;;;;;;;19.43;100.00;100999.44;5030235;28;20083;-70
2023/09/17 06:03:30;;;;;;;21.70;14.02;;;;;;;19.53;100.00;100998.63;5030232;28;20385;-70
2023/09/17 06:05:55;;;;;;;20.05;13.90;;;;;;;19.63;100.00;100998.72;5030130;28;20443;-71
2023/09/17 06:08:22;;;;;;;19.25;13.48;;;;;;;19.33;100.00;100922.53;5029864;28;20044;-70
2023/09/17 06:10:47;;;;;;;20.10;13.40;;;;;;;19.77;100.00;100991.84;5029753;28;20473;-70
2023/09/17 06:13:14;;;;;;;16.17;12.40;;;;;;;19.90;100.00;100998.09;5030016;28;20033;-71
2023/09/17 06:15:39;;;;;;;19.23;12.80;;;;;;;20.13;100.00;101000.84;5029892;28;20064;-69
2023/09/17 06:18:05;;;;;;;22.15;12.88;;;;;;;20.34;100.00;100999.22;5029653;28;20463;-72
2023/09/17 06:20:31;;;;;;;17.35;12.05;;;;;;;20.50;100.00;101001.03;5029519;28;20057;-70
2023/09/17 06:22:56;;;;;;;19.50;11.73;;;;;;;20.71;100.00;100999.44;5029854;28;20487;-69
2023/09/17 06:25:24;;;;;;;29.58;12.10;;;;;;;20.87;100.00;101010.81;5029806;28;20025;-70
2023/09/17 06:27:50;;;;;;;18.13;11.50;;;;;;;21.05;100.00;100999.50;5028457;28;20029;-70
2023/09/17 06:30:15;;;;;;;20.23;11.75;;;;;;;21.22;100.00;101009.16;5026756;28;20071;-71
2023/09/17 06:32:41;;;;;;;23.48;11.73;;;;;;;21.37;100.00;101014.44;5029470;28;20031;-70
2023/09/17 06:35:08;;;;;;;15.63;11.07;;;;;;;21.32;100.00;100998.69;5029106;28;20034;-72
2023/09/17 06:37:33;;;;;;;17.67;11.57;;;;;;;21.39;100.00;101007.44;5029031;28;20450;-70
2023/09/17 06:39:59;;;;;;;14.20;10.02;;;;;;;21.42;100.00;101014.44;5029031;28;20121;-69
2023/09/17 06:42:24;;;;;;;19.65;10.73;;;;;;;21.42;100.00;100999.56;5026780;28;20120;-69
2023/09/17 06:44:50;;;;;;;17.63;10.57;;;;;;;21.23;100.00;100964.50;5028921;28;20112;-70
2023/09/17 06:47:15;;;;;;;17.60;10.35;;;;;;;21.47;100.00;101012.69;5027655;28;20112;-70
2023/09/17 06:49:41;;;;;;;18.83;10.63;;;;;;;21.60;100.00;101008.34;5028912;28;20032;-70
2023/09/17 06:52:07;;;;;;;21.15;11.25;;;;;;;21.71;100.00;101010.97;5028843;28;20025;-71
2023/09/17 06:54:32;;;;;;;26.50;11.57;;;;;;;21.76;100.00;101007.47;5029030;28;20060;-73
2023/09/17 06:56:58;;;;;;;23.50;11.68;;;;;;;21.50;100.00;100965.41;5032888;28;20092;-71
2023/09/17 06:59:23;;;;;;;15.02;9.30;;;;;;;21.84;100.00;101017.09;5033158;28;20029;-69
2023/09/17 07:01:49;;;;;;;23.15;10.60;;;;;;;21.90;100.00;100996.94;5029517;28;20037;-70
2023/09/17 07:04:14;;;;;;;19.27;10.13;;;;;;;21.75;100.00;100960.16;5030229;28;20045;-71
2023/09/17 07:06:40;;;;;;;12.93;9.25;;;;;;;21.97;100.00;101008.34;5013299;28;20420;-71
2023/09/17 07:09:07;;;;;;;13.65;9.25;;;;;;;21.78;100.00;101000.47;5030115;28;20455;-70
2023/09/17 07:11:33;;;;;;;12.85;8.95;;;;;;;21.71;100.00;100979.44;5029766;28;20067;-71
2023/09/17 07:14:05;;;;;;;14.10;9.15;;;;;;;21.92;100.00;100991.66;5030353;28;20029;-70
2023/09/17 07:16:31;;;;;;;12.20;8.63;;;;;;;22.10;100.00;101004.78;5029755;28;20867;-70
2023/09/17 07:18:56;;;;;;;11.55;7.45;;;;;;;22.24;100.00;101009.13;5029789;28;20146;-71
2023/09/17 07:21:22;;;;;;;14.65;7.90;;;;;;;22.36;100.00;100998.56;5030141;28;20203;-70
2023/09/17 07:23:50;;;;;;;8.68;6.90;;;;;;;22.52;100.00;101006.44;5030279;28;20049;-70
2023/09/17 07:26:16;;;;;;;12.65;8.10;;;;;;;22.29;100.00;100941.59;5030367;28;20121;-73
2023/09/17 07:28:43;;;;;;;12.95;8.10;;;;;;;22.82;100.00;101000.16;5030365;28;20157;-69
2023/09/17 07:31:10;;;;;;;10.85;7.30;;;;;;;22.97;100.00;101006.22;5030305;28;20041;-70
2023/09/17 07:33:36;;;;;;;9.93;6.80;;;;;;;23.00;100.00;101000.94;5031782;28;20045;-71
2023/09/17 07:36:02;;;;;;;9.60;6.97;;;;;;;23.18;96.74;101007.88;5032914;28;20045;-70
2023/09/17 07:38:28;;;;;;;9.18;6.38;;;;;;;23.39;95.62;101009.47;5014052;28;20052;-69
2023/09/17 07:40:53;;;;;;;9.40;6.65;;;;;;;23.40;94.75;101013.88;5032764;28;20026;-69
2023/09/17 07:43:18;;;;;;;11.43;6.90;;;;;;;23.35;94.84;101008.66;5032845;28;20082;-70
2023/09/17 07:45:44;;;;;;;9.02;6.88;;;;;;;23.47;96.17;101002.41;5032513;28;20048;-71
2023/09/17 07:48:09;;;;;;;12.55;7.10;;;;;;;23.57;95.98;101004.06;5032346;28;20409;-72
2023/09/17 07:50:35;;;;;;;9.25;6.68;;;;;;;23.74;94.45;101010.97;5032615;28;20025;-75
2023/09/17 07:53:02;;;;;;;9.50;6.97;;;;;;;23.93;93.83;101011.69;5047955;28;20017;-70
2023/09/17 07:55:29;;;;;;;12.68;7.00;;;;;;;24.09;94.30;101009.78;5032346;28;20029;-70
2023/09/17 07:57:55;;;;;;;10.18;6.70;;;;;;;24.11;92.27;100999.22;5032431;28;20100;-69
2023/09/17 08:00:21;;;;;;;10.07;6.90;;;;;;;24.10;92.76;100986.91;5032317;28;20167;-69
2023/09/17 08:02:46;;;;;;;10.57;7.03;;;;;;;24.38;91.61;101004.16;5032175;28;20087;-71
2023/09/17 08:05:12;;;;;;;9.02;6.95;;;;;;;24.53;92.87;101002.25;5030771;28;20502;-70
2023/09/17 08:07:40;;;;;;;71.68;10.30;;;;;;;24.68;91.15;101007.34;5031399;28;20037;-70
2023/09/17 08:10:09;;;;;;;28.60;7.13;;;;;;;24.86;89.17;100994.78;5032245;28;20120;-74
2023/09/17 08:12:34;;;;;;;9.80;6.25;;;;;;;24.87;87.87;100992.16;5031249;28;20036;-70
2023/09/17 08:15:00;;;;;;;15.65;7.28;;;;;;;24.83;88.22;100992.19;5031311;28;20065;-70
2023/09/17 08:17:26;;;;;;;12.75;7.20;;;;;;;24.73;88.81;100995.88;5031089;28;20497;-69
2023/09/17 08:19:52;;;;;;;9.57;6.35;;;;;;;24.67;88.23;100991.53;5031698;28;20036;-69
2023/09/17 08:22:18;;;;;;;13.07;9.98;;;;;;;24.64;86.43;100973.94;5028343;28;20072;-70
2023/09/17 08:24:43;;;;;;;8.95;6.85;;;;;;;24.81;88.40;100984.31;5030522;28;20025;-69
2023/09/17 08:27:09;;;;;;;13.57;7.00;;;;;;;24.57;85.80;100910.69;5011886;28;20061;-69
2023/09/17 08:29:35;;;;;;;8.88;6.68;;;;;;;25.14;85.21;100982.06;5024027;28;20041;-70
2023/09/17 08:32:00;;;;;;;15.02;6.97;;;;;;;24.78;86.05;100920.09;5030642;28;20039;-70
2023/09/17 08:34:26;;;;;;;11.95;7.22;;;;;;;25.18;84.35;100977.59;5021262;28;20029;-68
2023/09/17 08:36:53;;;;;;;9.98;6.70;;;;;;;25.30;83.09;100977.41;5028839;28;20430;-71
2023/09/17 08:39:20;;;;;;;11.27;7.22;;;;;;;25.14;83.09;100963.56;5030543;28;20168;-69
2023/09/17 08:41:47;;;;;;;9.40;5.93;;;;;;;25.05;82.41;100926.72;5030346;28;20034;-69
2023/09/17 08:44:14;;;;;;;12.18;6.28;;;;;;;25.03;82.11;100932.03;5030010;28;20057;-70
2023/09/17 08:46:40;;;;;;;8.90;6.68;;;;;;;25.24;83.03;100966.94;5027422;28;20452;-70
2023/09/17 08:49:06;;;;;;;13.02;8.10;;;;;;;25.04;85.22;100961.97;5030088;28;20081;-71
2023/09/17 08:51:37;;;;;;;12.32;7.53;;;;;;;24.82;84.98;100954.38;5030781;28;20072;-72
2023/09/17 08:54:14;;;;;;;10.20;7.55;;;;;;;24.86;85.93;100955.16;5012156;28;20063;-70
2023/09/17 08:56:44;;;;;;;11.55;7.00;;;;;;;25.01;85.10;100954.97;5030362;28;20495;-72
2023/09/17 08:59:14;;;;;;;10.32;6.38;;;;;;;25.10;84.58;100959.22;5030026;28;20049;-69
2023/09/17 09:01:44;;;;;;;10.40;6.47;;;;;;;25.18;81.88;100964.38;5030468;28;20116;-71
2023/09/17 09:04:09;;;;;;;11.27;6.63;;;;;;;25.21;81.89;100956.44;5029982;28;20543;-69
2023/09/17 09:06:36;;;;;;;9.45;6.40;;;;;;;25.28;81.89;100965.13;5030319;28;20151;-68
2023/09/17 09:09:05;;;;;;;11.18;6.45;;;;;;;25.26;80.97;100961.59;5030302;28;20025;-70
2023/09/17 09:11:34;;;;;;;13.43;6.35;;;;;;;24.77;79.64;100876.09;5029696;28;20070;-69
2023/09/17 09:14:00;;;;;;;;;;;;;;;25.39;80.25;100946.47;5030608;28;20053;-69
2023/09/17 09:16:27;;;;;;;9.30;6.55;;;;;;;25.67;80.67;100953.00;5025207;28;19914;-74
2023/09/17 09:18:53;;;;;;;11.85;6.55;;;;;;;25.76;80.86;100932.59;5026838;28;20036;-73
2023/09/17 09:21:18;;;;;;;16.67;7.25;;;;;;;26.02;77.91;100945.31;5029577;28;20022;-69
2023/09/17 09:23:44;;;;;;;9.57;6.15;;;;;;;26.25;77.61;100936.94;5030318;28;20051;-72
2023/09/17 09:26:10;;;;;;;9.60;6.53;;;;;;;26.47;74.99;100939.13;4981402;28;20043;-71
2023/09/17 09:28:35;;;;;;;11.88;6.38;;;;;;;26.63;73.34;100937.88;4969032;28;20035;-73
2023/09/17 09:31:01;;;;;;;8.70;6.07;;;;;;;26.69;70.68;100909.50;4988109;28;20045;-72
2023/09/17 09:33:27;;;;;;;11.48;6.63;;;;;;;26.54;70.34;100903.66;4981718;28;20042;-68
2023/09/17 09:35:54;;;;;;;10.68;6.55;;;;;;;26.83;73.06;100926.00;4984148;28;20052;-71
2023/09/17 09:38:20;;;;;;;10.52;7.32;;;;;;;26.98;74.45;100913.28;4975568;28;20050;-68
2023/09/17 09:40:45;;;;;;;10.15;6.85;;;;;;;27.26;73.07;100927.56;4982011;28;20042;-69
2023/09/17 09:43:30;;;;;;;9.75;6.10;;;;;;;27.44;69.31;100933.34;4978853;28;20399;-71
2023/09/17 09:46:06;;;;;;;11.13;7.43;;;;;;;27.33;70.84;100924.78;4970951;28;20096;-72
2023/09/17 09:48:36;;;;;;;9.85;7.22;;;;;;;27.09;70.54;100913.88;4981859;28;20468;-71
2023/09/17 09:51:01;;;;;;;11.90;7.03;;;;;;;27.04;71.41;100900.75;4980401;28;20477;-70
2023/09/17 09:53:28;;;;;;;8.93;6.57;;;;;;;27.34;71.46;100929.16;4985931;28;20035;-70
2023/09/17 09:55:56;;;;;;;9.35;6.60;;;;;;;27.31;71.95;100918.66;4984527;28;20034;-68
2023/09/17 09:58:22;;;;;;;10.90;6.80;;;;;;;27.20;69.06;100913.63;5029216;28;20481;-72
2023/09/17 10:00:47;;;;;;;10.30;6.85;;;;;;;26.99;70.18;100920.31;5029537;28;20022;-71
2023/09/17 10:03:14;;;;;;;10.18;6.50;;;;;;;26.79;70.28;100916.34;5027037;28;20065;-71
2023/09/17 10:05:40;;;;;;;9.48;6.22;;;;;;;26.87;71.78;100919.72;5028915;28;20041;-69
2023/09/17 10:08:10;;;;;;;13.32;6.82;;;;;;;27.13;70.40;100907.63;4989572;28;20047;-72
2023/09/17 10:10:36;;;;;;;;;;;;;;;27.41;67.20;100910.44;5030013;28;20064;-70
2023/09/17 10:13:05;;;;;;;22.88;7.05;;;;;;;27.67;67.12;100900.91;5029499;28;19917;-71
2023/09/17 10:15:31;;;;;;;13.20;6.22;;;;;;;27.84;67.73;100903.09;5028185;28;20477;-71
2023/09/17 10:17:57;;;;;;;10.43;6.22;;;;;;;27.98;64.73;100883.28;5044355;28;20043;-71
2023/09/17 10:20:23;;;;;;;8.98;5.65;;;;;;;28.07;64.74;100899.81;5022345;28;20021;-71
2023/09/17 10:22:51;;;;;;;16.35;6.40;;;;;;;28.14;65.83;100905.81;5029158;28;20122;-72
2023/09/17 10:25:18;;;;;;;14.38;6.95;;;;;;;27.99;66.17;100901.81;5028328;28;20057;-75
2023/09/17 10:27:45;;;;;;;13.43;6.75;;;;;;;27.85;67.82;100893.34;5029480;28;20029;-70
2023/09/17 10:30:12;;;;;;;15.52;6.85;;;;;;;27.86;65.05;100898.59;5030437;28;20026;-70
2023/09/17 10:32:39;;;;;;;79.93;29.25;;;;;;;28.07;64.29;100891.00;5032925;28;20091;-71
2023/09/17 10:35:05;;;;;;;11.05;6.43;;;;;;;28.29;63.80;100898.31;5032872;28;20050;-70
2023/09/17 10:37:32;;;;;;;9.88;7.28;;;;;;;28.25;65.54;100885.13;5033325;28;20382;-74
2023/09/17 10:40:00;;;;;;;11.13;6.70;;;;;;;27.93;64.51;100838.28;5017880;28;20049;-70
2023/09/17 10:42:27;;;;;;;9.20;6.18;;;;;;;28.44;62.13;100886.34;5011692;28;20449;-70
2023/09/17 10:44:56;;;;;;;9.90;6.35;;;;;;;28.64;62.93;100877.78;5013351;28;20476;-71
2023/09/17 10:47:24;;;;;;;;;;;;;;;28.75;63.23;100890.72;5012451;28;20513;-73
2023/09/17 10:49:50;;;;;;;9.10;6.18;;;;;;;28.82;62.21;100871.00;5015126;28;19913;-70
2023/09/17 10:52:16;;;;;;;9.40;6.10;;;;;;;28.91;62.20;100883.13;5013205;28;20033;-69
2023/09/17 10:54:41;;;;;;;11.75;6.22;;;;;;;28.87;63.24;100874.38;5016377;28;20095;-71
2023/09/17 10:57:15;;;;;;;9.48;6.35;;;;;;;29.00;62.41;100858.91;5004224;28;20520;-68
2023/09/17 10:59:42;;;;;;;9.52;6.32;;;;;;;29.12;60.72;100863.78;5019203;28;20064;-69
2023/09/17 11:02:11;;;;;;;10.23;5.70;;;;;;;29.10;60.25;100839.06;5021612;28;20154;-70
2023/09/17 11:04:39;;;;;;;12.07;5.80;;;;;;;29.35;58.87;100863.03;5029387;28;20109;-70
2023/09/17 11:07:07;;;;;;;7.82;5.70;;;;;;;29.17;56.80;100800.69;5028986;28;20041;-71
2023/09/17 11:09:33;;;;;;;8.95;5.68;;;;;;;29.63;57.61;100842.53;5027604;28;20059;-70